KPVD/PVD METAR and TAF weather

Enter ICAO airport designator
Station Type Date Time Source
KPVD METAR 2022/05/23 12:51 UTC NOAA

KPVD 231251Z 35014G19KT 10SM OVC080 17/07 A3015 RMK AO2 SLP207 T01720072


Station Type Date Time Source
KPVD Decoded METAR 2022/05/23 12:51 UTC NOAA

PROVIDENCE GREEN STATE AIRPORT , RI, United States (KPVD) 41-44N 071-26W 16M
May 23, 2022 - 08:51 AM EDT / 2022.05.23 1251 UTC
Wind: from the N (350 degrees) at 16 MPH (14 KT) gusting to 22 MPH (19 KT):0
Visibility: 10 mile(s):0
Sky conditions: overcast
Temperature: 63.0 F (17.2 C)
Dew Point: 45.0 F (7.2 C)
Relative Humidity: 51%
Pressure (altimeter): 30.15 in. Hg (1020 hPa)
ob: KPVD 231251Z 35014G19KT 10SM OVC080 17/07 A3015 RMK AO2 SLP207 T01720072
cycle: 13

Station Type Date Time Source
KPVD TAF 2022/05/23 12:27 UTC NOAA

TAF KPVD 231124Z 2312/2412 36013KT P6SM OVC025
FM231300 36015KT P6SM OVC045
FM231700 01007KT P6SM SCT250
FM240000 15005KT P6SM BKN200
FM240300 00000KT P6SM OVC200

Example: see airport list